Home   Weather   Turkey   Gaziantep   Past weeks
Flag for Turkey

Past Weather in Gaziantep, Turkey — Yesterday and Last 2 Weeks

Currently: 79 °F. Broken clouds. (Weather station: Gaziantep Airport, Turkey). See more current weather

Past Weather in Gaziantep — Graph

°F

Gaziantep Temperature Yesterday

Maximum temperature yesterday: 81 °F (at 3:50 pm)
Minimum temperature yesterday: 59 °F (at 2:50 am)
Average temperature yesterday: 69 °F

High & Low Weather Summary for the Past Weeks

 TemperatureHumidityPressure
High90 °F (May 22, 4:50 pm)100% (May 24, 5:50 am)30.12 "Hg (May 24, 5:50 am)
Low46 °F (May 16, 5:20 am)16% (May 21, 2:50 pm)29.74 "Hg (May 12, 6:20 pm)
Average69 °F54%29.88 "Hg
* Reported May 12 2:50 pm — May 27 2:50 pm, Gaziantep. Weather by CustomWeather, © 2024

Note: Actual official high and low records may vary slightly from our data, if they occured in-between our weather recording intervals... More about our weather records

Gaziantep Weather History for the Previous 24 Hours

Scroll right to see more
 ConditionsComfort  
Time TempWeatherWind HumidityBarometerVisibility
2:50 pm
Mon, May 27
79 °FBroken clouds.10 mph37%29.92 "HgN/A
1:50 pm79 °FBroken clouds.12 mph34%29.92 "HgN/A
1:20 pm77 °FPartly sunny.12 mph42%29.92 "HgN/A
12:50 pm72 °FBroken clouds.7 mph53%29.95 "HgN/A
12:20 pm73 °FBroken clouds.7 mph47%29.95 "HgN/A
12:03 pm75 °FBroken clouds.12 mph41%29.92 "HgN/A
11:50 am75 °FThunderstorms. Broken clouds.9 mph39%29.95 "HgN/A
11:33 am73 °FSprinkles. Broken clouds.6 mph41%29.95 "HgN/A
10:50 am73 °FBroken clouds.5 mph41%29.95 "HgN/A
9:50 am75 °FPassing clouds.3 mph36%29.95 "HgN/A
9:20 am75 °FSunny.5 mph36%29.95 "Hg10 mi
8:50 am75 °FPassing clouds.3 mph39%29.95 "HgN/A
8:20 am72 °FPassing clouds.3 mph47%29.92 "HgN/A
7:50 am72 °FSunny.No wind47%29.92 "Hg10 mi
7:20 am64 °FSunny.No wind64%29.92 "Hg10 mi
6:50 am59 °FSunny.3 mph77%29.92 "Hg10 mi
6:20 am59 °FPassing clouds.5 mph68%29.92 "HgN/A
5:50 am52 °FPassing clouds.3 mph82%29.92 "HgN/A
5:20 am54 °FSunny.5 mph82%29.92 "Hg10 mi
4:50 am55 °FClear.6 mph77%29.92 "Hg10 mi
4:20 am54 °FClear.2 mph88%29.92 "Hg10 mi
3:50 am54 °FPassing clouds.3 mph82%29.92 "HgN/A
2:50 am54 °FClear.2 mph77%29.92 "Hg10 mi
2:20 am57 °FClear.1 mph72%29.92 "Hg10 mi
1:50 am59 °FClear.2 mph68%29.92 "Hg10 mi
1:20 am59 °FClear.3 mph63%29.92 "Hg10 mi
12:50 am57 °FClear.5 mph72%29.92 "Hg10 mi
12:20 am59 °FPassing clouds.3 mph63%29.92 "HgN/A
11:50 pm
Sun, May 26
59 °FClear.2 mph63%29.92 "Hg10 mi
11:20 pm61 °FClear.1 mph59%29.92 "Hg10 mi
10:50 pm61 °FClear.3 mph63%29.92 "Hg10 mi
10:20 pm64 °FPassing clouds.3 mph56%29.92 "HgN/A
9:50 pm64 °FClear.7 mph56%29.92 "Hg10 mi
9:20 pm68 °FClear.3 mph49%29.92 "Hg10 mi
8:50 pm70 °FClear.8 mph46%29.92 "Hg10 mi
7:50 pm73 °FClear.12 mph44%29.89 "Hg10 mi
7:20 pm73 °FSunny.14 mph44%29.89 "Hg10 mi
6:50 pm77 °FScattered clouds.14 mph42%29.89 "HgN/A
6:20 pm77 °FPartly sunny.10 mph34%29.89 "HgN/A
5:50 pm79 °FBroken clouds.13 mph32%29.89 "HgN/A
5:20 pm79 °FBroken clouds.13 mph30%29.89 "HgN/A
4:50 pm79 °FBroken clouds.15 mph34%29.89 "HgN/A
4:20 pm79 °FBroken clouds.16 mph30%29.89 "HgN/A
Weather by CustomWeather, © 2024

See weather overview